createdAt,value
2022-07-27T00:00:49.392Z,23.60
2022-07-27T00:03:17.571Z,23.61
2022-07-27T00:05:43.926Z,23.59
2022-07-27T00:08:10.522Z,23.58
2022-07-27T00:10:37.098Z,23.59
2022-07-27T00:13:03.939Z,23.58
2022-07-27T00:15:30.251Z,23.58
2022-07-27T00:17:58.992Z,23.56
2022-07-27T00:20:27.360Z,23.56
2022-07-27T00:22:53.878Z,23.56
2022-07-27T00:25:20.867Z,23.54
2022-07-27T00:27:47.306Z,23.54
2022-07-27T00:30:13.661Z,23.53
2022-07-27T00:32:39.946Z,23.53
2022-07-27T00:35:06.432Z,23.51
2022-07-27T00:37:34.965Z,23.50
2022-07-27T00:40:01.267Z,23.49
2022-07-27T00:42:27.756Z,23.49
2022-07-27T00:44:54.115Z,23.50
2022-07-27T00:47:20.419Z,23.50
2022-07-27T00:49:46.696Z,23.49
2022-07-27T00:52:14.192Z,23.49
2022-07-27T00:54:41.649Z,23.47
2022-07-27T00:57:07.888Z,23.49
2022-07-27T00:59:36.158Z,23.45
2022-07-27T01:02:03.861Z,23.47
2022-07-27T01:04:30.673Z,23.46
2022-07-27T01:06:57.357Z,23.44
2022-07-27T01:09:34.401Z,23.43
2022-07-27T01:12:00.925Z,23.43
2022-07-27T01:14:28.611Z,23.42
2022-07-27T01:16:55.510Z,23.40
2022-07-27T01:19:21.851Z,23.42
2022-07-27T01:21:48.895Z,23.41
2022-07-27T01:24:15.200Z,23.41
2022-07-27T01:26:41.476Z,23.41
2022-07-27T01:29:09.222Z,23.37
2022-07-27T01:31:35.912Z,23.38
2022-07-27T01:34:02.245Z,23.38
2022-07-27T01:36:28.541Z,23.37
2022-07-27T01:38:55.485Z,23.40
2022-07-27T01:41:23.600Z,23.36
2022-07-27T01:43:49.962Z,23.35
2022-07-27T01:46:16.813Z,23.34
2022-07-27T01:48:43.318Z,23.34
2022-07-27T01:51:10.131Z,23.34
2022-07-27T01:53:36.432Z,23.31
2022-07-27T01:56:02.731Z,23.31
2022-07-27T01:58:29.298Z,23.31
2022-07-27T02:00:56.558Z,23.31
2022-07-27T02:03:22.844Z,23.30
2022-07-27T02:05:49.262Z,23.29
2022-07-27T02:08:15.727Z,23.28
2022-07-27T02:10:42.132Z,23.27
2022-07-27T02:13:22.188Z,23.29
2022-07-27T02:15:49.625Z,23.28
2022-07-27T02:18:32.978Z,23.27
2022-07-27T02:21:02.150Z,23.25
2022-07-27T02:23:28.829Z,23.25
2022-07-27T02:25:55.165Z,23.23
2022-07-27T02:28:22.737Z,23.25
2022-07-27T02:30:49.236Z,23.23
2022-07-27T02:33:15.590Z,23.23
2022-07-27T02:35:43.098Z,23.20
2022-07-27T02:38:10.087Z,23.21
2022-07-27T02:40:36.430Z,23.21
2022-07-27T02:43:03.203Z,23.20
2022-07-27T02:45:29.635Z,23.18
2022-07-27T02:47:55.929Z,23.18
2022-07-27T02:50:23.846Z,23.17
2022-07-27T02:52:51.246Z,23.17
2022-07-27T02:55:17.543Z,23.16
2022-07-27T02:57:43.848Z,23.15
2022-07-27T03:00:11.290Z,23.15
2022-07-27T03:02:37.550Z,23.13
2022-07-27T03:05:04.617Z,23.13
2022-07-27T03:07:33.799Z,23.12
2022-07-27T03:10:00.875Z,23.10
2022-07-27T03:12:28.658Z,23.13
2022-07-27T03:14:55.005Z,23.13
2022-07-27T03:17:21.454Z,23.10
2022-07-27T03:19:47.760Z,23.09
2022-07-27T03:22:14.368Z,23.08
2022-07-27T03:24:43.340Z,23.07
2022-07-27T03:27:09.842Z,23.07
2022-07-27T03:29:36.121Z,23.06
2022-07-27T03:32:02.599Z,23.07
2022-07-27T03:34:28.879Z,23.06
2022-07-27T03:36:55.201Z,23.04
2022-07-27T03:39:21.538Z,23.04
2022-07-27T03:41:47.829Z,23.03
2022-07-27T03:44:14.541Z,23.02
2022-07-27T03:46:40.880Z,23.01
2022-07-27T03:49:13.968Z,23.01
2022-07-27T03:51:45.849Z,22.99
2022-07-27T03:54:12.172Z,23.03
2022-07-27T03:56:39.667Z,22.99
2022-07-27T03:59:08.870Z,22.99
2022-07-27T04:01:35.797Z,22.98
2022-07-27T04:04:02.297Z,22.98
2022-07-27T04:06:28.618Z,22.98
2022-07-27T04:08:59.416Z,22.99
2022-07-27T04:11:33.935Z,22.96
2022-07-27T04:14:00.223Z,22.96
2022-07-27T04:16:29.066Z,22.97
2022-07-27T04:18:57.718Z,22.95
2022-07-27T04:21:24.092Z,22.97
2022-07-27T04:23:54.147Z,22.96
2022-07-27T04:26:20.534Z,22.96
2022-07-27T04:28:47.571Z,22.96
2022-07-27T04:31:14.011Z,22.95
2022-07-27T04:33:41.254Z,22.96
2022-07-27T04:36:07.620Z,22.95
2022-07-27T04:38:33.914Z,22.94
2022-07-27T04:41:00.255Z,22.94
2022-07-27T04:43:29.534Z,22.95
2022-07-27T04:45:56.071Z,22.95
2022-07-27T04:48:22.815Z,22.94
2022-07-27T04:50:49.072Z,22.94
2022-07-27T04:53:15.464Z,22.96
2022-07-27T04:55:41.799Z,22.95
2022-07-27T04:58:08.165Z,22.93
2022-07-27T05:00:35.729Z,22.95
2022-07-27T05:03:02.471Z,22.96
2022-07-27T05:05:29.199Z,22.96
2022-07-27T05:07:55.577Z,22.97
2022-07-27T05:10:21.910Z,22.99
2022-07-27T05:12:48.186Z,23.01
2022-07-27T05:15:15.137Z,23.02
2022-07-27T05:17:41.417Z,23.04
2022-07-27T05:20:07.833Z,23.03
2022-07-27T05:22:39.014Z,23.02
2022-07-27T05:25:06.631Z,23.04
2022-07-27T05:27:32.961Z,23.05
2022-07-27T05:29:59.340Z,23.07
2022-07-27T05:32:25.712Z,23.07
2022-07-27T05:34:52.166Z,23.09
2022-07-27T05:37:18.620Z,23.11
2022-07-27T05:39:45.444Z,23.17
2022-07-27T05:42:11.798Z,23.22
2022-07-27T05:44:38.115Z,23.28
2022-07-27T05:47:06.126Z,23.26
2022-07-27T05:49:33.266Z,23.31
2022-07-27T05:51:59.641Z,23.36
2022-07-27T05:54:26.160Z,23.71
2022-07-27T05:56:52.573Z,23.90
2022-07-27T05:59:19.111Z,24.03
2022-07-27T06:01:46.148Z,24.04
2022-07-27T06:04:14.770Z,24.06
2022-07-27T06:06:41.228Z,24.09
2022-07-27T06:09:07.620Z,24.00
2022-07-27T06:11:34.708Z,24.15
2022-07-27T06:14:01.049Z,24.37
2022-07-27T06:16:27.411Z,24.21
2022-07-27T06:18:53.754Z,24.50
2022-07-27T06:21:20.112Z,24.71
2022-07-27T06:23:50.358Z,24.79
2022-07-27T06:26:16.849Z,24.86
2022-07-27T06:28:44.530Z,24.97
2022-07-27T06:31:11.306Z,24.90
2022-07-27T06:33:38.120Z,25.04
2022-07-27T06:36:04.884Z,25.27
2022-07-27T06:38:31.508Z,25.43
2022-07-27T06:40:57.832Z,25.40
2022-07-27T06:43:24.476Z,25.68
2022-07-27T06:45:52.108Z,25.45
2022-07-27T06:48:19.880Z,25.26
2022-07-27T06:50:46.195Z,25.24
2022-07-27T06:53:12.563Z,25.26
2022-07-27T06:55:39.020Z,25.35
2022-07-27T06:58:05.346Z,25.39
2022-07-27T07:00:33.509Z,25.43
2022-07-27T07:02:59.877Z,25.48
2022-07-27T07:05:26.164Z,25.57
2022-07-27T07:07:53.259Z,25.67
2022-07-27T07:10:19.950Z,25.74
2022-07-27T07:12:48.193Z,25.77
2022-07-27T07:15:14.629Z,25.81
2022-07-27T07:17:41.516Z,25.88
2022-07-27T07:20:07.908Z,25.94
2022-07-27T07:22:34.339Z,26.00
2022-07-27T07:25:03.020Z,26.08
2022-07-27T07:27:29.868Z,26.15
2022-07-27T07:29:56.515Z,26.18
2022-07-27T07:32:22.874Z,26.23
2022-07-27T07:34:49.432Z,26.28
2022-07-27T07:37:15.819Z,26.64
2022-07-27T07:39:42.106Z,26.40
2022-07-27T07:42:11.048Z,26.28
2022-07-27T07:44:37.479Z,26.29
2022-07-27T07:47:03.870Z,26.58
2022-07-27T07:49:39.142Z,26.70
2022-07-27T07:52:06.437Z,26.47
2022-07-27T07:54:32.790Z,26.39
2022-07-27T07:56:59.087Z,26.86
2022-07-27T07:59:25.894Z,27.15
2022-07-27T08:01:52.218Z,27.29
2022-07-27T08:04:18.611Z,27.34
2022-07-27T08:06:44.973Z,27.48
2022-07-27T08:09:12.816Z,27.61
2022-07-27T08:11:39.415Z,27.70
2022-07-27T08:14:05.745Z,27.77
2022-07-27T08:16:32.092Z,27.86
2022-07-27T08:18:59.812Z,27.89
2022-07-27T08:21:29.199Z,27.51
2022-07-27T08:24:02.974Z,27.34
2022-07-27T08:26:29.680Z,27.83
2022-07-27T08:28:56.008Z,27.76
2022-07-27T08:31:47.473Z,27.49
2022-07-27T08:34:12.226Z,27.40
2022-07-27T08:36:38.833Z,27.32
2022-07-27T08:39:05.168Z,27.50
2022-07-27T08:41:31.731Z,27.50
2022-07-27T08:43:58.784Z,27.62
2022-07-27T08:46:28.778Z,27.67
2022-07-27T08:48:55.196Z,27.77
2022-07-27T08:51:23.788Z,27.65
2022-07-27T08:53:52.970Z,27.60
2022-07-27T08:56:20.939Z,27.72
2022-07-27T08:58:47.242Z,28.28
2022-07-27T09:01:13.595Z,28.56
2022-07-27T09:03:39.930Z,28.56
2022-07-27T09:06:06.393Z,28.41
2022-07-27T09:08:34.614Z,28.18
2022-07-27T09:11:01.120Z,28.05
2022-07-27T09:13:27.422Z,27.91
2022-07-27T09:21:37.248Z,27.82
2022-07-27T09:24:03.750Z,27.77
2022-07-27T09:26:34.397Z,27.79
2022-07-27T09:29:01.527Z,27.81
2022-07-27T09:31:27.937Z,27.84
2022-07-27T09:33:54.979Z,27.90
2022-07-27T09:36:21.272Z,27.95
2022-07-27T09:38:53.052Z,27.97
2022-07-27T09:41:21.611Z,27.99
2022-07-27T09:44:29.070Z,27.99
2022-07-27T09:46:39.636Z,28.05
2022-07-27T09:49:07.035Z,28.09
2022-07-27T09:51:58.914Z,28.12
2022-07-27T09:54:20.229Z,28.12
2022-07-27T09:56:47.264Z,28.12
2022-07-27T09:59:14.741Z,28.16
2022-07-27T10:01:47.651Z,28.20
2022-07-27T10:04:15.769Z,28.20
2022-07-27T10:07:01.134Z,28.21
2022-07-27T10:09:28.857Z,28.18
2022-07-27T10:11:55.214Z,28.19
2022-07-27T10:14:24.870Z,28.20
2022-07-27T10:16:51.677Z,28.16
2022-07-27T10:19:18.077Z,28.17
2022-07-27T10:21:44.411Z,28.18
2022-07-27T10:24:11.480Z,28.20
2022-07-27T10:26:37.887Z,28.23
2022-07-27T10:29:04.915Z,28.25
2022-07-27T10:31:31.275Z,28.23
2022-07-27T10:33:57.695Z,28.26
2022-07-27T10:36:25.411Z,28.28
2022-07-27T10:38:51.822Z,28.28
2022-07-27T10:41:19.964Z,28.27
2022-07-27T10:43:46.805Z,28.16
2022-07-27T10:46:13.986Z,28.11
2022-07-27T10:48:48.092Z,28.12
2022-07-27T10:51:15.496Z,28.14
2022-07-27T10:54:10.495Z,28.16
2022-07-27T10:56:28.500Z,28.18
2022-07-27T10:58:56.010Z,28.16
2022-07-27T11:01:22.707Z,28.19
2022-07-27T11:03:49.580Z,28.19
2022-07-27T11:06:32.577Z,28.19
2022-07-27T11:11:50.597Z,28.18
2022-07-27T11:14:18.322Z,28.15
2022-07-27T11:16:55.575Z,28.13
2022-07-27T11:19:23.237Z,28.08
2022-07-27T11:21:49.694Z,28.06
2022-07-27T11:24:16.232Z,28.05
2022-07-27T11:26:42.746Z,28.06
2022-07-27T11:29:10.647Z,28.07
2022-07-27T11:34:24.087Z,28.05
2022-07-27T11:36:50.932Z,28.05
2022-07-27T11:39:43.737Z,28.04
2022-07-27T11:42:08.547Z,28.02
2022-07-27T11:44:38.387Z,28.00
2022-07-27T11:47:07.220Z,28.02
2022-07-27T11:49:35.459Z,28.02
2022-07-27T11:52:02.537Z,28.06
2022-07-27T11:54:29.113Z,28.00
2022-07-27T11:56:56.279Z,27.97
2022-07-27T11:59:22.845Z,27.98
2022-07-27T12:01:50.246Z,27.98
2022-07-27T12:04:16.566Z,27.97
2022-07-27T12:06:42.949Z,27.96
2022-07-27T12:09:13.352Z,28.01
2022-07-27T12:11:40.253Z,27.99
2022-07-27T12:14:08.224Z,27.97
2022-07-27T12:16:35.294Z,28.01
2022-07-27T12:19:01.646Z,28.02
2022-07-27T12:21:31.932Z,28.05
2022-07-27T12:23:59.044Z,28.02
2022-07-27T12:26:30.066Z,27.96
2022-07-27T12:28:59.331Z,27.97
2022-07-27T12:31:25.677Z,27.94
2022-07-27T12:34:02.908Z,27.94
2022-07-27T12:36:32.263Z,28.00
2022-07-27T12:38:58.588Z,28.00
2022-07-27T12:41:24.962Z,27.97
2022-07-27T12:43:51.338Z,27.97
2022-07-27T12:46:17.756Z,27.99
2022-07-27T12:48:44.181Z,28.00
2022-07-27T12:51:10.688Z,27.96
2022-07-27T12:53:37.973Z,27.94
2022-07-27T12:56:04.385Z,27.92
2022-07-27T12:58:31.505Z,27.87
2022-07-27T13:00:58.478Z,27.86
2022-07-27T13:03:25.246Z,27.86
2022-07-27T13:05:52.007Z,27.85
2022-07-27T13:08:18.397Z,27.89
2022-07-27T13:10:44.811Z,27.87
2022-07-27T13:13:12.002Z,27.89
2022-07-27T13:15:38.353Z,27.90
2022-07-27T13:18:04.644Z,27.90
2022-07-27T13:20:31.052Z,27.89
2022-07-27T13:22:57.417Z,27.89
2022-07-27T13:25:23.895Z,27.89
2022-07-27T13:27:50.160Z,27.83
2022-07-27T13:30:16.524Z,27.80
2022-07-27T13:32:44.179Z,27.80
2022-07-27T13:35:11.665Z,27.79
2022-07-27T13:37:37.911Z,27.83
2022-07-27T13:40:04.857Z,27.84
2022-07-27T13:42:31.209Z,27.81
2022-07-27T13:45:09.850Z,27.82
2022-07-27T13:47:37.057Z,27.83
2022-07-27T13:50:03.563Z,27.81
2022-07-27T13:52:30.391Z,27.80
2022-07-27T13:54:56.729Z,27.76
2022-07-27T13:57:23.942Z,27.74
2022-07-27T13:59:50.258Z,27.74
2022-07-27T14:02:17.369Z,27.76
2022-07-27T14:04:49.647Z,27.75
2022-07-27T14:07:16.388Z,27.74
2022-07-27T14:09:42.713Z,27.74
2022-07-27T14:12:09.002Z,27.76
2022-07-27T14:14:36.897Z,27.80
2022-07-27T14:17:03.175Z,27.80
2022-07-27T14:19:31.663Z,27.80
2022-07-27T14:21:58.459Z,27.77
2022-07-27T14:24:24.760Z,27.72
2022-07-27T14:26:51.113Z,27.73
2022-07-27T14:29:18.580Z,27.71
2022-07-27T14:31:45.273Z,27.70
2022-07-27T14:34:12.518Z,27.69
2022-07-27T14:36:38.889Z,27.70
2022-07-27T14:39:05.162Z,27.74
2022-07-27T14:41:31.753Z,27.75
2022-07-27T14:43:59.018Z,27.73
2022-07-27T14:46:25.316Z,27.74
2022-07-27T14:49:07.273Z,27.72
2022-07-27T14:51:37.016Z,27.71
2022-07-27T14:54:03.648Z,27.71
2022-07-27T14:56:30.624Z,27.70
2022-07-27T14:58:56.911Z,27.66
2022-07-27T15:01:24.802Z,27.64
2022-07-27T15:03:52.621Z,27.65
2022-07-27T15:06:18.988Z,27.63
2022-07-27T15:08:45.300Z,27.61
2022-07-27T15:11:11.829Z,27.61
2022-07-27T15:13:38.622Z,27.60
2022-07-27T15:16:05.210Z,27.59
2022-07-27T15:18:36.435Z,27.58
2022-07-27T15:21:09.707Z,27.56
2022-07-27T15:23:41.444Z,27.54
2022-07-27T15:26:08.305Z,27.53
2022-07-27T15:28:34.607Z,27.54
2022-07-27T15:31:01.269Z,27.54
2022-07-27T15:33:28.217Z,27.51
2022-07-27T15:35:54.489Z,27.49
2022-07-27T15:38:20.957Z,27.49
2022-07-27T15:40:47.297Z,27.48
2022-07-27T15:43:13.614Z,27.46
2022-07-27T15:45:40.147Z,27.45
2022-07-27T15:48:07.337Z,27.44
2022-07-27T15:50:33.747Z,27.43
2022-07-27T15:53:00.842Z,27.41
2022-07-27T15:55:27.146Z,27.34
2022-07-27T15:57:53.504Z,27.06
2022-07-27T16:00:20.129Z,26.79
2022-07-27T16:02:48.453Z,26.61
2022-07-27T16:05:15.082Z,26.58
2022-07-27T16:07:42.993Z,26.48
2022-07-27T16:10:09.634Z,26.38
2022-07-27T16:12:38.312Z,26.31
2022-07-27T16:15:05.753Z,26.25
2022-07-27T16:17:32.533Z,26.30
2022-07-27T16:19:59.015Z,26.20
2022-07-27T16:22:25.317Z,26.18
2022-07-27T16:24:52.788Z,26.23
2022-07-27T16:27:19.560Z,26.14
2022-07-27T16:29:46.000Z,26.11
2022-07-27T16:32:12.418Z,26.07
2022-07-27T16:34:38.826Z,25.90
2022-07-27T16:37:18.738Z,25.87
2022-07-27T16:39:45.131Z,25.70
2022-07-27T16:42:11.823Z,25.70
2022-07-27T16:44:38.192Z,25.73
2022-07-27T16:47:04.928Z,25.74
2022-07-27T16:49:38.011Z,25.76
2022-07-27T16:52:05.472Z,25.71
2022-07-27T16:54:38.807Z,25.71
2022-07-27T16:57:05.767Z,25.73
2022-07-27T16:59:32.086Z,25.73
2022-07-27T17:01:58.577Z,25.71
2022-07-27T17:04:25.031Z,25.66
2022-07-27T17:06:53.000Z,25.63
2022-07-27T17:09:19.448Z,25.51
2022-07-27T17:11:45.769Z,25.49
2022-07-27T17:14:13.682Z,25.58
2022-07-27T17:16:40.392Z,25.55
2022-07-27T17:19:07.880Z,25.45
2022-07-27T17:21:37.538Z,25.43
2022-07-27T17:27:05.968Z,25.36
2022-07-27T17:29:34.533Z,25.22
2022-07-27T17:32:01.073Z,25.17
2022-07-27T17:34:28.018Z,25.15
2022-07-27T17:36:55.366Z,25.14
2022-07-27T17:39:22.138Z,25.14
2022-07-27T17:41:49.242Z,25.12
2022-07-27T17:44:15.550Z,25.03
2022-07-27T17:46:42.265Z,25.08
2022-07-27T17:49:09.909Z,24.95
2022-07-27T17:51:36.997Z,24.94
2022-07-27T17:54:03.331Z,24.91
2022-07-27T17:56:29.613Z,24.88
2022-07-27T17:59:04.921Z,24.87
2022-07-27T18:01:47.421Z,24.80
2022-07-27T18:04:16.104Z,24.74
2022-07-27T18:06:43.172Z,24.62
2022-07-27T18:09:09.943Z,24.58
2022-07-27T18:11:37.098Z,24.53
2022-07-27T18:14:04.961Z,24.47
2022-07-27T18:16:38.037Z,24.36
2022-07-27T18:19:10.378Z,24.31
2022-07-27T18:21:37.207Z,24.30
2022-07-27T18:24:06.385Z,24.18
2022-07-27T18:26:33.062Z,24.11
2022-07-27T18:29:00.127Z,23.96
2022-07-27T18:31:26.549Z,23.88
2022-07-27T18:33:53.468Z,23.85
2022-07-27T18:36:20.184Z,23.79
2022-07-27T18:38:48.056Z,23.74
2022-07-27T18:41:15.471Z,23.59
2022-07-27T18:43:42.779Z,23.60
2022-07-27T18:46:12.373Z,23.60
2022-07-27T18:48:38.876Z,23.55
2022-07-27T18:51:05.832Z,23.45
2022-07-27T18:53:32.189Z,23.35
2022-07-27T18:55:58.676Z,23.25
2022-07-27T18:58:25.573Z,23.14
2022-07-27T19:00:52.292Z,23.00
2022-07-27T19:03:21.471Z,22.69
2022-07-27T19:05:47.859Z,22.70
2022-07-27T19:08:15.811Z,22.83
2022-07-27T19:10:45.999Z,22.73
2022-07-27T19:13:12.294Z,22.56
2022-07-27T19:15:38.798Z,22.46
2022-07-27T19:18:06.675Z,22.37
2022-07-27T19:20:33.820Z,22.19
2022-07-27T19:23:00.175Z,22.00
2022-07-27T19:25:31.977Z,21.90
2022-07-27T19:27:59.933Z,21.79
2022-07-27T19:30:26.242Z,21.77
2022-07-27T19:32:52.895Z,21.55
2022-07-27T19:35:19.246Z,21.42
2022-07-27T19:37:48.695Z,21.53
2022-07-27T19:40:42.677Z,21.53
2022-07-27T19:43:01.904Z,21.42
2022-07-27T19:45:28.849Z,21.60
2022-07-27T19:47:55.199Z,21.68
2022-07-27T19:50:25.843Z,21.75
2022-07-27T19:52:52.683Z,21.70
2022-07-27T19:55:19.648Z,21.46
2022-07-27T19:57:45.922Z,21.46
2022-07-27T20:00:12.531Z,21.51
2022-07-27T20:02:39.103Z,21.39
2022-07-27T20:07:55.891Z,21.42
2022-07-27T20:10:22.710Z,21.47
2022-07-27T20:12:49.112Z,21.41
2022-07-27T20:15:15.558Z,21.39
2022-07-27T20:17:41.926Z,21.37
2022-07-27T20:20:09.622Z,21.27
2022-07-27T20:22:36.014Z,21.20
2022-07-27T20:25:03.325Z,21.01
2022-07-27T20:27:29.749Z,20.82
2022-07-27T20:29:56.069Z,20.89
2022-07-27T20:32:22.408Z,20.89
2022-07-27T20:34:48.755Z,20.91
2022-07-27T20:37:16.783Z,20.94
2022-07-27T20:39:43.084Z,20.92
2022-07-27T20:42:09.616Z,20.88
2022-07-27T20:44:36.295Z,20.94
2022-07-27T20:47:04.040Z,20.96
2022-07-27T20:49:30.492Z,21.37
2022-07-27T20:51:57.407Z,21.55
2022-07-27T20:54:29.208Z,21.62
2022-07-27T20:56:57.918Z,21.68
2022-07-27T20:59:24.862Z,21.72
2022-07-27T21:01:51.389Z,21.74
2022-07-27T21:04:17.719Z,21.74
2022-07-27T21:06:44.065Z,21.74
2022-07-27T21:09:11.219Z,21.74
2022-07-27T21:11:37.758Z,21.74
2022-07-27T21:14:04.577Z,21.74
2022-07-27T21:16:31.537Z,21.74
2022-07-27T21:18:57.914Z,21.75
2022-07-27T21:21:27.428Z,21.73
2022-07-27T21:23:54.720Z,21.72
2022-07-27T21:26:25.207Z,21.73
2022-07-27T21:28:52.336Z,21.73
2022-07-27T21:31:19.888Z,21.59
2022-07-27T21:33:46.356Z,21.49
2022-07-27T21:36:14.577Z,21.40
2022-07-27T21:38:42.070Z,21.35
2022-07-27T21:41:08.717Z,21.30
2022-07-27T21:43:36.480Z,21.25
2022-07-27T21:46:02.945Z,21.20
2022-07-27T21:48:29.802Z,21.18
2022-07-27T21:50:56.137Z,21.14
2022-07-27T21:53:22.419Z,21.11
2022-07-27T21:55:48.813Z,21.07
2022-07-27T21:58:15.150Z,21.05
2022-07-27T22:00:41.500Z,21.02
2022-07-27T22:03:08.855Z,20.98
2022-07-27T22:05:35.378Z,20.95
2022-07-27T22:08:01.775Z,20.92
2022-07-27T22:10:28.134Z,20.88
2022-07-27T22:12:54.412Z,20.86
2022-07-27T22:15:20.821Z,20.84
2022-07-27T22:17:50.130Z,20.80
2022-07-27T22:20:18.885Z,20.78
2022-07-27T22:22:45.357Z,20.75
2022-07-27T22:25:11.943Z,20.73
2022-07-27T22:27:39.119Z,20.73
2022-07-27T22:30:06.150Z,20.68
2022-07-27T22:32:32.491Z,20.69
2022-07-27T22:34:58.804Z,20.67
2022-07-27T22:37:25.971Z,20.65
2022-07-27T22:39:53.242Z,20.64
2022-07-27T22:42:19.537Z,20.60
2022-07-27T22:44:46.690Z,20.58
2022-07-27T22:47:12.989Z,20.56
2022-07-27T22:49:39.340Z,20.53
2022-07-27T22:52:05.907Z,20.50
2022-07-27T22:54:32.452Z,20.46
2022-07-27T22:56:58.754Z,20.42
2022-07-27T22:59:25.676Z,20.42
2022-07-27T23:01:52.832Z,20.41
2022-07-27T23:04:19.312Z,20.40
2022-07-27T23:06:45.698Z,20.40
2022-07-27T23:09:12.081Z,20.39
2022-07-27T23:11:38.425Z,20.38
2022-07-27T23:14:04.769Z,20.38
2022-07-27T23:16:31.233Z,20.36
2022-07-27T23:18:57.618Z,20.34
2022-07-27T23:21:24.779Z,20.31
2022-07-27T23:23:53.951Z,20.30
2022-07-27T23:26:20.517Z,20.28
2022-07-27T23:28:49.339Z,20.25
2022-07-27T23:31:16.365Z,20.24
2022-07-27T23:33:42.789Z,20.22
2022-07-27T23:36:10.314Z,20.20
2022-07-27T23:38:37.339Z,20.17
2022-07-27T23:41:03.642Z,20.15
2022-07-27T23:43:31.166Z,20.13
2022-07-27T23:45:57.469Z,20.14
2022-07-27T23:48:25.103Z,20.13
2022-07-27T23:50:52.259Z,20.11
2022-07-27T23:53:18.727Z,20.12
2022-07-27T23:55:45.113Z,20.13
2022-07-27T23:58:11.663Z,20.13
